Time;durP1;ratioP1;P1;durP2;ratioP2;P2;SDS_P1;SDS_P2;PMS_P1;PMS_P2;Temp;Humidity;BMP_temperature;BMP_pressure;BME280_temperature;BME280_humidity;BME280_pressure;Samples;Min_cycle;Max_cycle;Signal;HPM_P1;HPM_P2
2023/11/29 00:00:16;;;;;;;8.57;5.90;;;2.60;99.90;;;;;;4974542;28;20044;-76
2023/11/29 00:02:42;;;;;;;10.68;5.95;;;2.70;99.90;;;;;;4960746;29;20051;-76
2023/11/29 00:05:08;;;;;;;8.73;5.47;;;2.40;99.90;;;;;;4960588;29;20070;-76
2023/11/29 00:07:34;;;;;;;9.43;5.18;;;2.40;99.90;;;;;;4963249;29;20043;-77
2023/11/29 00:10:00;;;;;;;9.05;5.15;;;2.50;99.90;;;;;;4975142;28;20126;-77
2023/11/29 00:12:26;;;;;;;8.70;5.60;;;2.60;99.90;;;;;;4957863;28;20122;-77
2023/11/29 00:14:51;;;;;;;7.30;4.82;;;2.70;99.90;;;;;;4957836;28;20062;-77
2023/11/29 00:17:17;;;;;;;6.43;4.40;;;2.60;99.90;;;;;;4959029;29;20047;-77
2023/11/29 00:19:43;;;;;;;9.52;5.95;;;2.40;99.90;;;;;;4959356;29;20487;-76
2023/11/29 00:22:10;;;;;;;8.77;4.93;;;2.60;99.90;;;;;;4959718;28;20412;-76
2023/11/29 00:24:36;;;;;;;12.32;5.43;;;2.30;99.90;;;;;;4973968;28;20129;-77
2023/11/29 00:27:04;;;;;;;8.27;5.45;;;2.40;99.90;;;;;;4974607;28;20051;-76
2023/11/29 00:29:30;;;;;;;9.05;5.32;;;2.50;99.90;;;;;;4975643;28;20043;-77
2023/11/29 00:31:55;;;;;;;7.05;4.80;;;2.10;99.90;;;;;;4961355;29;20043;-76
2023/11/29 00:34:21;;;;;;;10.00;4.70;;;2.30;99.90;;;;;;4961482;29;20558;-76
2023/11/29 00:36:49;;;;;;;9.98;5.47;;;2.30;99.90;;;;;;4957975;29;20411;-76
2023/11/29 00:39:15;;;;;;;7.55;4.60;;;2.00;99.90;;;;;;4974206;28;20051;-76
2023/11/29 00:41:42;;;;;;;8.07;4.57;;;2.00;99.90;;;;;;4957301;28;20070;-76
2023/11/29 00:44:08;;;;;;;7.10;3.65;;;2.30;99.90;;;;;;4974223;28;20742;-77
2023/11/29 00:46:33;;;;;;;4.90;3.22;;;2.30;99.90;;;;;;4973553;28;20055;-76
2023/11/29 00:48:59;;;;;;;5.05;3.15;;;2.00;99.90;;;;;;4958238;29;20404;-76
2023/11/29 00:51:26;;;;;;;5.68;3.15;;;2.10;99.90;;;;;;4959906;29;20044;-76
2023/11/29 00:53:51;;;;;;;5.28;3.08;;;2.30;99.90;;;;;;4940904;29;20051;-77
2023/11/29 00:56:17;;;;;;;5.13;2.78;;;2.30;99.90;;;;;;4956895;29;20045;-77
2023/11/29 00:58:43;;;;;;;3.97;2.78;;;2.00;99.90;;;;;;4956591;29;20419;-77
2023/11/29 01:01:08;;;;;;;5.30;2.38;;;2.00;99.90;;;;;;4957038;28;20504;-77
2023/11/29 01:03:34;;;;;;;3.13;1.95;;;2.00;99.90;;;;;;4958367;28;20039;-77
2023/11/29 01:06:00;;;;;;;3.55;1.98;;;2.00;99.90;;;;;;4973607;28;20047;-77
2023/11/29 01:08:25;;;;;;;4.97;2.50;;;2.10;99.90;;;;;;4957548;29;20503;-77
2023/11/29 01:10:53;;;;;;;2.97;1.83;;;1.90;99.90;;;;;;4956244;29;20079;-77
2023/11/29 01:13:19;;;;;;;4.70;1.98;;;2.00;99.90;;;;;;4958563;29;20047;-77
2023/11/29 01:15:46;;;;;;;3.05;2.10;;;2.20;99.90;;;;;;4959194;28;20427;-77
2023/11/29 01:18:12;;;;;;;2.47;1.33;;;2.10;99.90;;;;;;4959349;28;20078;-77
2023/11/29 01:20:38;;;;;;;1.90;1.05;;;2.00;99.90;;;;;;4956001;29;20035;-76
2023/11/29 01:23:04;;;;;;;1.83;1.05;;;2.00;99.90;;;;;;4971632;28;20043;-76
2023/11/29 01:25:29;;;;;;;1.40;1.00;;;2.00;99.90;;;;;;4956554;29;20050;-76
2023/11/29 01:27:55;;;;;;;1.88;1.08;;;1.80;99.90;;;;;;4958567;29;20043;-76
2023/11/29 01:30:20;;;;;;;1.92;1.23;;;2.00;99.90;;;;;;4956767;29;20075;-76
2023/11/29 01:32:46;;;;;;;0.80;0.60;;;1.90;99.90;;;;;;4957114;28;20082;-76
2023/11/29 01:35:12;;;;;;;1.25;0.85;;;1.80;99.90;;;;;;4957074;29;20035;-76
2023/11/29 01:37:38;;;;;;;1.80;1.10;;;1.70;99.90;;;;;;4955874;29;20050;-76
2023/11/29 01:40:04;;;;;;;2.25;1.30;;;1.70;99.90;;;;;;4956687;28;20047;-76
2023/11/29 01:42:30;;;;;;;2.65;1.65;;;1.60;99.90;;;;;;4973057;28;20047;-76
2023/11/29 01:44:55;;;;;;;3.63;2.30;;;1.80;99.90;;;;;;4955926;29;20534;-76
2023/11/29 01:47:22;;;;;;;3.03;1.88;;;1.60;99.90;;;;;;4955183;29;20418;-76
2023/11/29 01:49:48;;;;;;;3.20;2.10;;;1.60;99.90;;;;;;4955211;29;20035;-77
2023/11/29 01:52:35;;;;;;;3.28;2.20;;;1.70;99.90;;;;;;4971560;28;20110;-77
2023/11/29 01:55:02;;;;;;;3.08;2.03;;;1.60;99.90;;;;;;4970936;28;20043;-76
2023/11/29 01:57:27;;;;;;;4.13;2.67;;;1.80;99.90;;;;;;4970895;28;20118;-76
2023/11/29 01:59:53;;;;;;;6.30;3.40;;;1.90;99.90;;;;;;4954732;29;20035;-77
2023/11/29 02:02:19;;;;;;;3.90;2.53;;;1.90;99.90;;;;;;4971777;28;20047;-77
2023/11/29 02:04:46;;;;;;;5.00;2.58;;;1.90;99.90;;;;;;4954924;28;20422;-76
2023/11/29 02:07:29;;;;;;;4.20;2.40;;;1.90;99.90;;;;;;4955155;29;20043;-77
2023/11/29 02:09:55;;;;;;;;;;;1.60;99.90;;;;;;4954922;29;20043;-77
2023/11/29 02:12:21;;;;;;;4.07;2.00;;;1.90;99.90;;;;;;4954002;28;19923;-76
2023/11/29 02:14:47;;;;;;;3.33;1.92;;;1.80;99.90;;;;;;4978083;28;20058;-76
2023/11/29 02:17:12;;;;;;;3.00;1.88;;;1.70;99.90;;;;;;4991981;28;20497;-76
2023/11/29 02:19:38;;;;;;;3.25;1.77;;;1.80;99.90;;;;;;4994990;28;20042;-76
2023/11/29 02:22:04;;;;;;;2.22;1.55;;;2.00;99.90;;;;;;4993609;28;20085;-76
2023/11/29 02:24:39;;;;;;;3.50;2.08;;;1.70;99.90;;;;;;4983755;28;20038;-76
2023/11/29 02:27:05;;;;;;;3.45;2.00;;;2.00;99.90;;;;;;4991367;28;20057;-76
2023/11/29 02:29:31;;;;;;;3.22;2.40;;;1.80;99.90;;;;;;4996075;28;20125;-77
2023/11/29 02:31:56;;;;;;;4.88;3.22;;;1.80;99.90;;;;;;4993623;28;20034;-77
2023/11/29 02:34:22;;;;;;;6.30;3.75;;;2.10;99.90;;;;;;4983863;28;20081;-76
2023/11/29 02:36:47;;;;;;;8.70;4.60;;;2.20;99.90;;;;;;4988379;28;20039;-77
2023/11/29 02:39:13;;;;;;;7.38;5.32;;;1.90;99.90;;;;;;4993192;28;20169;-76
2023/11/29 02:41:38;;;;;;;7.70;4.22;;;2.00;99.90;;;;;;4994002;28;20038;-77
2023/11/29 02:44:05;;;;;;;8.68;5.15;;;1.90;99.90;;;;;;4994851;28;20133;-76
2023/11/29 02:46:30;;;;;;;6.97;4.65;;;1.80;99.90;;;;;;4994061;28;20128;-77
2023/11/29 02:48:57;;;;;;;8.77;4.80;;;2.10;99.90;;;;;;4994131;28;20402;-77
2023/11/29 02:51:23;;;;;;;9.20;4.57;;;2.00;99.90;;;;;;4983064;28;20097;-77
2023/11/29 02:53:49;;;;;;;8.00;4.93;;;2.00;99.90;;;;;;4988835;28;20089;-77
2023/11/29 02:56:15;;;;;;;8.05;5.30;;;1.90;99.90;;;;;;4992335;28;20042;-77
2023/11/29 02:58:40;;;;;;;9.65;5.43;;;2.10;99.90;;;;;;4992405;28;20073;-77
2023/11/29 03:01:06;;;;;;;8.20;4.78;;;2.10;99.90;;;;;;4992028;28;20038;-77
2023/11/29 03:03:32;;;;;;;7.75;4.55;;;2.20;99.90;;;;;;4984911;28;20069;-77
2023/11/29 03:05:57;;;;;;;6.85;3.97;;;1.90;99.90;;;;;;4981004;28;20526;-77
2023/11/29 03:08:23;;;;;;;9.55;4.85;;;2.00;99.90;;;;;;4992782;28;20069;-77
2023/11/29 03:10:49;;;;;;;7.00;4.07;;;2.00;99.90;;;;;;4991978;28;20490;-77
2023/11/29 03:13:14;;;;;;;8.25;4.85;;;2.30;99.90;;;;;;4991751;28;20496;-77
2023/11/29 03:15:40;;;;;;;5.55;3.85;;;2.20;99.90;;;;;;4992876;28;20497;-77
2023/11/29 03:18:05;;;;;;;5.88;3.70;;;2.20;99.90;;;;;;4991692;28;20038;-77
2023/11/29 03:20:31;;;;;;;9.77;4.28;;;2.20;99.90;;;;;;4991730;28;20403;-77
2023/11/29 03:22:57;;;;;;;6.60;4.13;;;2.30;99.90;;;;;;4991358;28;20125;-77
2023/11/29 03:25:22;;;;;;;5.13;3.45;;;2.20;99.90;;;;;;4996140;28;20096;-77
2023/11/29 03:27:48;;;;;;;5.40;3.15;;;2.00;99.90;;;;;;4997023;28;20046;-77
2023/11/29 03:30:14;;;;;;;6.47;3.10;;;2.20;99.90;;;;;;4998948;28;20048;-77
2023/11/29 03:32:39;;;;;;;5.05;3.05;;;2.00;99.90;;;;;;4997144;28;20051;-77
2023/11/29 03:35:05;;;;;;;3.55;2.53;;;2.00;99.90;;;;;;4997271;28;20081;-77
2023/11/29 03:37:31;;;;;;;3.20;2.35;;;2.20;99.90;;;;;;4980527;28;20038;-77
2023/11/29 03:39:57;;;;;;;4.05;2.22;;;1.90;99.90;;;;;;4996670;28;20401;-77
2023/11/29 03:42:23;;;;;;;4.43;1.70;;;2.10;99.90;;;;;;4996313;28;20050;-77
2023/11/29 03:44:48;;;;;;;1.88;1.20;;;1.90;99.90;;;;;;4996284;28;20490;-77
2023/11/29 03:47:14;;;;;;;2.85;1.75;;;2.10;99.90;;;;;;4996457;28;20046;-77
2023/11/29 03:49:40;;;;;;;4.47;2.00;;;2.20;99.90;;;;;;4998824;28;20046;-77
2023/11/29 03:52:05;;;;;;;2.50;1.33;;;2.10;99.90;;;;;;4996135;28;20042;-77
2023/11/29 03:54:31;;;;;;;2.20;1.70;;;2.20;99.90;;;;;;4997028;28;20046;-77
2023/11/29 03:56:56;;;;;;;4.30;1.63;;;2.20;99.90;;;;;;4995784;28;20030;-77
2023/11/29 03:59:22;;;;;;;2.70;1.33;;;2.10;99.90;;;;;;4997774;28;20047;-77
2023/11/29 04:01:48;;;;;;;3.15;1.70;;;2.30;99.90;;;;;;4996733;28;20490;-77
2023/11/29 04:04:13;;;;;;;5.53;1.63;;;2.10;99.90;;;;;;4995437;28;20084;-77
2023/11/29 04:06:39;;;;;;;3.25;1.67;;;2.10;99.90;;;;;;4995507;28;20462;-77
2023/11/29 04:09:05;;;;;;;3.92;1.98;;;2.10;99.90;;;;;;4995882;28;20429;-77
2023/11/29 04:11:30;;;;;;;3.60;2.22;;;2.10;99.90;;;;;;4995962;28;20104;-77
2023/11/29 04:13:56;;;;;;;3.92;2.17;;;2.10;99.90;;;;;;4996136;28;20043;-77
2023/11/29 04:16:27;;;;;;;3.05;1.75;;;2.00;99.90;;;;;;4994987;28;20046;-76
2023/11/29 04:18:53;;;;;;;2.50;1.90;;;2.00;99.90;;;;;;4998009;28;20051;-76
2023/11/29 04:21:23;;;;;;;4.45;2.00;;;1.90;99.90;;;;;;4995865;28;20046;-76
2023/11/29 04:23:49;;;;;;;4.25;2.45;;;2.00;99.90;;;;;;4979671;28;20097;-77
2023/11/29 04:26:32;;;;;;;3.17;2.38;;;2.10;99.90;;;;;;4996101;28;20450;-76
2023/11/29 04:29:01;;;;;;;4.03;1.85;;;1.90;99.90;;;;;;4996387;28;20514;-76
2023/11/29 04:31:29;;;;;;;2.30;1.70;;;2.10;99.90;;;;;;4996425;28;20133;-77
2023/11/29 04:33:54;;;;;;;2.97;1.80;;;1.90;99.90;;;;;;4997155;28;20577;-77
2023/11/29 04:36:20;;;;;;;3.45;2.25;;;2.10;99.90;;;;;;4995430;28;20133;-76
2023/11/29 04:38:46;;;;;;;4.18;1.90;;;2.10;99.90;;;;;;4995988;28;20044;-77
2023/11/29 04:41:12;;;;;;;2.55;1.83;;;1.90;99.90;;;;;;4994746;28;20494;-77
2023/11/29 04:43:38;;;;;;;2.55;1.88;;;2.10;99.90;;;;;;4994756;28;20057;-74
2023/11/29 04:46:03;;;;;;;2.78;1.77;;;2.10;99.90;;;;;;4997346;28;20038;-77
2023/11/29 04:48:34;;;;;;;4.22;2.50;;;2.10;99.90;;;;;;4994684;28;20338;-77
2023/11/29 04:51:00;;;;;;;3.30;2.35;;;2.10;99.90;;;;;;4994203;28;20053;-77
2023/11/29 04:53:25;;;;;;;4.28;2.45;;;2.10;99.90;;;;;;4994745;28;20042;-77
2023/11/29 04:55:54;;;;;;;3.40;2.30;;;1.90;99.90;;;;;;4994787;28;20072;-77
2023/11/29 04:58:22;;;;;;;5.35;2.92;;;2.00;99.90;;;;;;4996243;28;20060;-77
2023/11/29 05:00:48;;;;;;;5.45;3.42;;;1.90;99.90;;;;;;4995462;28;20046;-77
2023/11/29 05:03:20;;;;;;;4.40;2.95;;;2.20;99.90;;;;;;4996021;28;20520;-77
2023/11/29 05:05:47;;;;;;;6.43;3.17;;;2.20;99.90;;;;;;4996199;28;20042;-77
2023/11/29 05:08:13;;;;;;;5.63;3.72;;;1.90;99.90;;;;;;4995176;28;20501;-77
2023/11/29 05:10:38;;;;;;;6.63;3.58;;;2.00;99.90;;;;;;4994857;28;20045;-77
2023/11/29 05:13:06;;;;;;;5.30;3.35;;;2.10;99.90;;;;;;4994495;28;20121;-77
2023/11/29 05:15:32;;;;;;;7.55;3.78;;;2.10;99.90;;;;;;4994373;28;20181;-77
2023/11/29 05:17:58;;;;;;;5.55;3.53;;;2.00;99.90;;;;;;4995876;28;20092;-77
2023/11/29 05:20:23;;;;;;;6.32;3.90;;;2.20;99.90;;;;;;4996162;28;20031;-77
2023/11/29 05:22:49;;;;;;;8.43;4.30;;;2.10;99.90;;;;;;4994764;28;20050;-77
2023/11/29 05:25:15;;;;;;;6.55;3.72;;;2.10;99.90;;;;;;4995348;28;20081;-77
2023/11/29 05:27:41;;;;;;;7.93;4.10;;;2.40;99.90;;;;;;4994650;28;20469;-77
2023/11/29 05:30:07;;;;;;;6.88;3.83;;;2.40;99.90;;;;;;4994928;28;20038;-77
2023/11/29 05:32:33;;;;;;;10.85;4.00;;;2.50;99.90;;;;;;4994067;28;20042;-77
2023/11/29 05:34:58;;;;;;;7.22;3.72;;;2.20;99.90;;;;;;4994840;28;20089;-77
2023/11/29 05:37:24;;;;;;;8.00;3.90;;;2.50;99.90;;;;;;4994454;28;20070;-77
2023/11/29 05:39:50;;;;;;;8.77;3.58;;;2.30;99.90;;;;;;4994654;28;20045;-77
2023/11/29 05:42:15;;;;;;;7.47;3.42;;;2.50;99.90;;;;;;4994234;28;20125;-77
2023/11/29 05:44:41;;;;;;;7.32;3.72;;;2.30;99.90;;;;;;4994108;28;20104;-77
2023/11/29 05:47:07;;;;;;;8.05;3.63;;;2.60;99.90;;;;;;4994399;28;20128;-77
2023/11/29 05:49:32;;;;;;;8.77;3.65;;;2.30;99.90;;;;;;4994748;28;20038;-77
2023/11/29 05:51:58;;;;;;;5.38;3.25;;;2.70;99.90;;;;;;4995809;28;20549;-77
2023/11/29 05:54:24;;;;;;;11.07;3.13;;;2.50;99.90;;;;;;4994568;28;20042;-77
2023/11/29 05:56:49;;;;;;;6.78;4.07;;;2.50;99.90;;;;;;4993645;28;20133;-77
2023/11/29 05:59:15;;;;;;;6.45;2.63;;;2.70;99.90;;;;;;4993701;28;20044;-77
2023/11/29 06:01:41;;;;;;;8.18;3.03;;;2.60;99.90;;;;;;4965931;28;20053;-77
2023/11/29 06:04:07;;;;;;;3.80;2.20;;;2.60;99.90;;;;;;4985560;28;20049;-77
2023/11/29 06:06:33;;;;;;;4.57;2.10;;;2.70;99.90;;;;;;4969850;28;20046;-77
2023/11/29 06:09:07;;;;;;;5.97;2.38;;;2.50;99.90;;;;;;4993568;28;20141;-77
2023/11/29 06:11:36;;;;;;;4.43;2.03;;;2.60;99.90;;;;;;4994437;28;20109;-77
2023/11/29 06:14:03;;;;;;;2.58;1.75;;;2.40;99.90;;;;;;4987486;28;20034;-77
2023/11/29 06:16:29;;;;;;;2.65;1.65;;;2.40;99.90;;;;;;4986656;28;20038;-77
2023/11/29 06:18:54;;;;;;;3.50;2.00;;;2.60;99.90;;;;;;4994863;28;20049;-77
2023/11/29 06:21:20;;;;;;;3.42;1.65;;;2.30;99.90;;;;;;4994543;28;20042;-77
2023/11/29 06:23:46;;;;;;;4.10;2.53;;;2.50;99.90;;;;;;4993524;28;20413;-77
2023/11/29 06:26:11;;;;;;;3.90;2.70;;;2.70;99.90;;;;;;4996008;28;20038;-77
2023/11/29 06:28:38;;;;;;;8.85;3.72;;;2.60;99.90;;;;;;4996668;28;20041;-76
2023/11/29 06:31:07;;;;;;;9.10;4.65;;;2.30;99.90;;;;;;4988173;28;20120;-77
2023/11/29 06:33:32;;;;;;;11.20;5.10;;;2.50;99.90;;;;;;4987779;28;20558;-77
2023/11/29 06:36:00;;;;;;;14.88;6.30;;;2.60;99.90;;;;;;4994240;28;20070;-77
2023/11/29 06:38:26;;;;;;;10.63;6.40;;;2.60;99.90;;;;;;4992906;28;20089;-77
2023/11/29 06:40:52;;;;;;;14.35;6.07;;;2.60;99.90;;;;;;4994380;28;20053;-76
2023/11/29 06:43:18;;;;;;;13.65;5.85;;;2.60;99.90;;;;;;4993183;28;20453;-77
2023/11/29 06:45:46;;;;;;;8.90;5.80;;;2.60;99.90;;;;;;4993922;28;20042;-77
2023/11/29 06:48:12;;;;;;;11.48;6.82;;;2.60;99.90;;;;;;4993054;28;20113;-76
2023/11/29 06:50:38;;;;;;;13.68;5.85;;;2.70;99.90;;;;;;4989736;28;20085;-76
2023/11/29 06:53:04;;;;;;;10.02;5.97;;;2.60;99.90;;;;;;4983337;28;20098;-76
2023/11/29 06:55:30;;;;;;;17.95;6.13;;;2.70;99.90;;;;;;4994173;28;20126;-76
2023/11/29 06:57:55;;;;;;;12.63;6.10;;;2.70;99.90;;;;;;4992092;28;20130;-76
2023/11/29 07:00:21;;;;;;;12.95;5.85;;;2.70;99.90;;;;;;4992347;28;20204;-77
2023/11/29 07:02:47;;;;;;;10.38;6.10;;;2.50;99.90;;;;;;4994024;28;20038;-77
2023/11/29 07:05:12;;;;;;;11.55;6.13;;;2.60;99.90;;;;;;4992535;28;20050;-76
2023/11/29 07:07:38;;;;;;;10.40;6.18;;;2.60;99.90;;;;;;4993655;28;20038;-77
2023/11/29 07:10:05;;;;;;;13.88;6.65;;;2.60;99.90;;;;;;4993597;28;20161;-76
2023/11/29 07:12:31;;;;;;;11.45;6.38;;;2.60;99.90;;;;;;4992578;28;20042;-76
2023/11/29 07:14:58;;;;;;;10.77;6.00;;;2.60;99.90;;;;;;4992098;28;20031;-76
2023/11/29 07:17:24;;;;;;;10.25;5.47;;;2.50;99.90;;;;;;4994159;28;20455;-76
2023/11/29 07:19:49;;;;;;;8.55;5.75;;;2.60;99.90;;;;;;4993617;28;20080;-76
2023/11/29 07:22:15;;;;;;;11.43;5.45;;;2.60;99.90;;;;;;4992939;28;20082;-76
2023/11/29 07:24:44;;;;;;;10.15;5.90;;;2.50;99.90;;;;;;4997321;28;20081;-76
2023/11/29 07:27:10;;;;;;;7.90;5.18;;;2.50;99.90;;;;;;4976548;28;20058;-76
2023/11/29 07:29:37;;;;;;;11.65;5.95;;;2.50;99.90;;;;;;4995067;28;20097;-76
2023/11/29 07:32:04;;;;;;;10.00;5.15;;;2.60;99.90;;;;;;4993898;28;20051;-76
2023/11/29 07:34:29;;;;;;;9.77;4.88;;;2.50;99.90;;;;;;5013596;23;20038;-79
2023/11/29 07:36:55;;;;;;;7.47;4.50;;;2.40;99.90;;;;;;4992545;28;20045;-79
2023/11/29 07:39:21;;;;;;;9.15;4.85;;;2.40;99.90;;;;;;4992560;28;20034;-79
2023/11/29 07:41:48;;;;;;;5.47;3.97;;;2.30;99.90;;;;;;4991718;28;20513;-79
2023/11/29 07:44:14;;;;;;;8.68;4.22;;;2.40;99.90;;;;;;4988352;28;20035;-79
2023/11/29 07:46:40;;;;;;;8.15;3.83;;;2.40;99.90;;;;;;4976172;28;20072;-78
2023/11/29 07:49:06;;;;;;;7.65;3.85;;;2.40;99.90;;;;;;4949363;28;20100;-78
2023/11/29 07:51:32;;;;;;;6.65;3.55;;;2.40;99.90;;;;;;4954038;28;20525;-79
2023/11/29 07:53:58;;;;;;;6.70;3.63;;;2.40;99.90;;;;;;4971499;28;20097;-78
2023/11/29 07:56:24;;;;;;;5.75;2.80;;;2.40;99.90;;;;;;5004719;28;20414;-78
2023/11/29 07:58:49;;;;;;;3.95;2.50;;;2.40;99.90;;;;;;5004454;28;20067;-78
2023/11/29 08:01:15;;;;;;;5.80;3.38;;;2.40;99.90;;;;;;4971737;28;20047;-78
2023/11/29 08:03:41;;;;;;;7.30;3.40;;;2.30;99.90;;;;;;4971645;28;20081;-78
2023/11/29 08:06:07;;;;;;;7.68;3.15;;;2.30;99.90;;;;;;4971108;28;20495;-78
2023/11/29 08:08:34;;;;;;;5.80;3.35;;;2.40;99.90;;;;;;4971761;28;20475;-78
2023/11/29 08:11:00;;;;;;;5.57;3.13;;;2.30;99.90;;;;;;4974257;28;20525;-78
2023/11/29 08:13:26;;;;;;;6.57;3.83;;;2.30;99.90;;;;;;5008093;28;20035;-78
2023/11/29 08:15:53;;;;;;;6.85;2.90;;;2.40;99.90;;;;;;5007542;28;20039;-78
2023/11/29 08:18:19;;;;;;;6.50;2.88;;;2.30;99.90;;;;;;5007711;28;20541;-78
2023/11/29 08:20:45;;;;;;;11.82;3.05;;;2.30;99.90;;;;;;4958874;28;20082;-78
2023/11/29 08:23:11;;;;;;;4.30;2.45;;;2.40;99.90;;;;;;4975476;28;20616;-78
2023/11/29 08:25:36;;;;;;;5.45;2.53;;;2.30;99.90;;;;;;5007434;28;20078;-79
2023/11/29 08:28:02;;;;;;;5.07;3.25;;;2.40;99.90;;;;;;5007608;28;20424;-78
2023/11/29 08:30:28;;;;;;;3.42;2.22;;;2.40;99.90;;;;;;4959001;28;20049;-78
2023/11/29 08:32:53;;;;;;;7.38;2.47;;;2.40;99.90;;;;;;4973836;28;20043;-77
2023/11/29 08:35:19;;;;;;;4.90;2.78;;;2.30;99.90;;;;;;4950719;28;20041;-78
2023/11/29 08:37:45;;;;;;;8.63;3.20;;;2.40;99.90;;;;;;4965116;28;20510;-78
2023/11/29 08:40:11;;;;;;;11.00;2.70;;;2.30;99.90;;;;;;4942507;29;20046;-78
2023/11/29 08:42:36;;;;;;;5.65;2.65;;;2.30;99.90;;;;;;4969718;28;20042;-78
2023/11/29 08:45:03;;;;;;;4.75;2.38;;;2.30;99.90;;;;;;4974978;28;20055;-79
2023/11/29 08:47:28;;;;;;;5.75;2.78;;;2.30;99.90;;;;;;4975014;28;20038;-76
2023/11/29 08:49:54;;;;;;;5.32;2.72;;;2.30;99.90;;;;;;5008518;28;20046;-75
2023/11/29 08:52:22;;;;;;;4.30;2.92;;;2.30;99.90;;;;;;4974306;28;20047;-75
2023/11/29 08:54:49;;;;;;;3.30;2.53;;;2.30;99.90;;;;;;5006764;28;20045;-73
2023/11/29 08:57:17;;;;;;;5.35;2.22;;;2.40;99.90;;;;;;4974399;28;20062;-74
2023/11/29 08:59:43;;;;;;;5.85;2.53;;;2.40;99.90;;;;;;4974215;28;20046;-74
2023/11/29 09:02:09;;;;;;;4.47;2.28;;;2.40;99.90;;;;;;4974160;28;20047;-74
2023/11/29 09:04:34;;;;;;;3.65;2.47;;;2.50;99.90;;;;;;4974079;28;20414;-74
2023/11/29 09:07:04;;;;;;;8.98;2.55;;;2.50;99.90;;;;;;4974181;28;20078;-74
2023/11/29 09:09:30;;;;;;;4.75;3.10;;;2.60;99.90;;;;;;5006780;28;20058;-74
2023/11/29 09:11:56;;;;;;;6.97;2.28;;;2.70;99.90;;;;;;4973923;28;20046;-74
2023/11/29 09:14:21;;;;;;;6.20;2.70;;;2.80;99.90;;;;;;4974166;28;20430;-74
2023/11/29 09:16:47;;;;;;;4.35;2.38;;;2.80;99.90;;;;;;4973436;28;20170;-74
2023/11/29 09:19:13;;;;;;;7.47;2.45;;;2.90;99.90;;;;;;5006234;28;20039;-73
2023/11/29 09:21:38;;;;;;;4.43;1.90;;;3.10;99.90;;;;;;4956336;28;20039;-74
2023/11/29 09:24:04;;;;;;;5.80;2.60;;;3.10;99.90;;;;;;4973195;28;20531;-74
2023/11/29 09:26:30;;;;;;;4.10;1.90;;;3.30;99.90;;;;;;4973210;28;20042;-74
2023/11/29 09:28:56;;;;;;;4.32;1.70;;;3.30;99.90;;;;;;4973722;28;20042;-74
2023/11/29 09:31:21;;;;;;;3.22;1.83;;;3.30;99.90;;;;;;4973282;28;20043;-74
2023/11/29 09:33:47;;;;;;;3.30;2.10;;;3.30;99.90;;;;;;4973433;28;20141;-74
2023/11/29 09:36:15;;;;;;;3.75;2.15;;;3.20;99.90;;;;;;4989207;28;20045;-74
2023/11/29 09:38:41;;;;;;;3.17;1.67;;;3.10;99.90;;;;;;5005820;28;20053;-74
2023/11/29 09:41:06;;;;;;;2.20;1.60;;;3.20;99.90;;;;;;4973202;28;20504;-74
2023/11/29 09:43:34;;;;;;;4.65;2.42;;;3.10;99.90;;;;;;4973426;28;20039;-74
2023/11/29 09:46:00;;;;;;;4.53;1.80;;;3.20;99.90;;;;;;5005589;28;20039;-74
2023/11/29 09:48:26;;;;;;;3.22;2.15;;;3.10;99.90;;;;;;4998308;28;20057;-74
2023/11/29 09:50:53;;;;;;;4.80;2.17;;;3.20;99.90;;;;;;5006024;28;20095;-74
2023/11/29 09:53:18;;;;;;;4.10;2.25;;;3.10;99.90;;;;;;5005448;28;20125;-74
2023/11/29 09:55:44;;;;;;;6.45;1.67;;;3.10;99.90;;;;;;5005538;28;20503;-75
2023/11/29 09:58:10;;;;;;;3.25;1.80;;;3.30;99.90;;;;;;5005509;28;20039;-74
2023/11/29 10:00:36;;;;;;;5.22;2.63;;;3.30;99.90;;;;;;4973121;28;20046;-74
2023/11/29 10:03:14;;;;;;;4.47;2.17;;;3.30;99.90;;;;;;4956634;28;20050;-74
2023/11/29 10:05:46;;;;;;;3.28;1.88;;;3.40;99.90;;;;;;5005190;28;20039;-74
2023/11/29 10:08:22;;;;;;;2.73;2.10;;;3.40;99.90;;;;;;4972595;28;20134;-75
2023/11/29 10:10:48;;;;;;;2.85;1.92;;;3.50;99.90;;;;;;4996074;28;20290;-75
2023/11/29 10:13:17;;;;;;;2.97;2.00;;;3.50;99.90;;;;;;4971779;28;20107;-74
2023/11/29 10:15:50;;;;;;;3.95;1.73;;;3.60;99.90;;;;;;4972135;28;20090;-74
2023/11/29 10:18:17;;;;;;;4.25;2.25;;;3.60;99.90;;;;;;4972329;28;20050;-74
2023/11/29 10:20:49;;;;;;;3.10;1.83;;;3.50;99.90;;;;;;5004785;28;20039;-74
2023/11/29 10:23:15;;;;;;;5.63;2.00;;;3.50;99.90;;;;;;4988355;28;20043;-74
2023/11/29 10:25:43;;;;;;;2.92;1.65;;;3.50;99.90;;;;;;5004466;28;20093;-74
2023/11/29 10:28:08;;;;;;;2.92;1.50;;;3.60;99.90;;;;;;5004819;28;20082;-75
2023/11/29 10:30:34;;;;;;;2.60;1.42;;;3.50;99.90;;;;;;5004628;28;20045;-74
2023/11/29 10:33:02;;;;;;;5.85;2.90;;;3.50;99.90;;;;;;4955639;28;20141;-74
2023/11/29 10:35:30;;;;;;;4.90;1.45;;;3.40;99.90;;;;;;5004362;28;20434;-75
2023/11/29 10:38:12;;;;;;;4.97;1.77;;;3.40;99.90;;;;;;5004621;28;20042;-75
2023/11/29 10:40:39;;;;;;;9.23;2.92;;;3.40;99.90;;;;;;5004728;28;20050;-75
2023/11/29 10:43:05;;;;;;;4.47;1.50;;;3.50;99.90;;;;;;4955581;28;20035;-75
2023/11/29 10:45:34;;;;;;;1.90;1.23;;;3.50;99.90;;;;;;4971795;28;20046;-74
2023/11/29 10:48:12;;;;;;;3.35;1.42;;;3.50;99.90;;;;;;4956235;28;20406;-74
2023/11/29 10:50:38;;;;;;;3.65;1.15;;;3.50;99.90;;;;;;5004207;28;20417;-74
2023/11/29 10:53:05;;;;;;;1.52;1.25;;;3.60;99.90;;;;;;4971713;28;20043;-75
2023/11/29 10:55:35;;;;;;;3.08;1.50;;;3.60;99.90;;;;;;5004625;28;20410;-75
2023/11/29 10:58:27;;;;;;;6.85;1.33;;;3.50;99.90;;;;;;4955657;28;20035;-75
2023/11/29 11:00:53;;;;;;;1.83;1.40;;;3.50;99.90;;;;;;4971740;28;20066;-75
2023/11/29 11:03:42;;;;;;;3.53;1.60;;;3.50;99.90;;;;;;4971767;28;20051;-74
2023/11/29 11:06:23;;;;;;;3.28;1.40;;;3.40;99.90;;;;;;4971695;28;20417;-73
2023/11/29 11:08:53;;;;;;;4.10;1.60;;;3.60;99.90;;;;;;5003866;28;20082;-75
2023/11/29 11:11:41;;;;;;;3.88;1.48;;;3.70;99.90;;;;;;4990881;28;20054;-74
2023/11/29 11:14:29;;;;;;;2.17;1.45;;;3.60;99.90;;;;;;4978928;28;20050;-74
2023/11/29 11:17:09;;;;;;;3.88;1.52;;;3.80;99.90;;;;;;4954727;28;20039;-74
2023/11/29 11:19:37;;;;;;;1.50;0.98;;;3.80;99.90;;;;;;4952724;29;20106;-74
2023/11/29 11:22:23;;;;;;;6.57;1.50;;;3.90;99.90;;;;;;4952672;29;20051;-74
2023/11/29 11:25:09;;;;;;;2.25;1.38;;;4.00;99.90;;;;;;4936570;29;20404;-74
2023/11/29 11:27:41;;;;;;;5.70;1.55;;;4.10;99.90;;;;;;4952218;29;20047;-74
2023/11/29 11:30:19;;;;;;;3.17;1.40;;;4.10;99.90;;;;;;4952346;29;20043;-74
2023/11/29 11:32:49;;;;;;;4.18;1.40;;;4.20;99.90;;;;;;4955752;28;20125;-74
2023/11/29 11:37:50;;;;;;;5.10;1.80;;;4.30;99.90;;;;;;4970564;28;20050;-74
2023/11/29 11:40:17;;;;;;;5.55;1.95;;;4.30;99.90;;;;;;5001238;28;20041;-74
2023/11/29 11:42:44;;;;;;;1.42;1.13;;;4.30;99.90;;;;;;4971279;28;20050;-74
2023/11/29 11:45:12;;;;;;;2.63;1.65;;;4.40;99.90;;;;;;4989107;28;20078;-74
2023/11/29 11:47:38;;;;;;;3.92;1.40;;;4.40;99.90;;;;;;5007825;28;20038;-73
2023/11/29 11:50:05;;;;;;;3.83;1.80;;;4.30;99.90;;;;;;5008126;28;20125;-74
2023/11/29 11:52:35;;;;;;;4.43;1.75;;;4.40;99.90;;;;;;4975061;28;20082;-74
2023/11/29 11:55:05;;;;;;;3.42;1.40;;;4.40;99.90;;;;;;4978732;28;20043;-74
2023/11/29 11:57:31;;;;;;;4.32;1.45;;;4.40;99.90;;;;;;4955673;29;20065;-75
2023/11/29 11:59:57;;;;;;;2.85;1.20;;;4.20;99.90;;;;;;4955823;28;20035;-74
2023/11/29 12:02:24;;;;;;;4.13;1.35;;;4.20;99.90;;;;;;4955996;29;20057;-75
2023/11/29 12:04:49;;;;;;;3.30;1.25;;;4.20;99.90;;;;;;4955688;29;20043;-74
2023/11/29 12:07:17;;;;;;;3.00;1.10;;;4.20;99.90;;;;;;4955335;29;20098;-74
2023/11/29 12:09:46;;;;;;;3.50;1.35;;;4.20;99.90;;;;;;4955398;29;20531;-74
2023/11/29 12:12:12;;;;;;;3.45;1.50;;;4.20;99.90;;;;;;4955698;29;20062;-74
2023/11/29 12:14:46;;;;;;;5.20;1.77;;;4.10;99.90;;;;;;4955379;29;20079;-74
2023/11/29 12:17:12;;;;;;;2.08;1.60;;;4.20;99.90;;;;;;4956450;28;20047;-74
2023/11/29 12:19:40;;;;;;;4.43;1.52;;;4.10;99.90;;;;;;4955526;29;20122;-74
2023/11/29 12:22:06;;;;;;;4.18;1.55;;;4.10;99.90;;;;;;4955375;28;20170;-74
2023/11/29 12:24:47;;;;;;;4.25;1.70;;;4.10;99.90;;;;;;4955229;28;20086;-74
2023/11/29 12:27:19;;;;;;;6.60;2.28;;;4.10;99.90;;;;;;4954980;28;20082;-74
2023/11/29 12:29:47;;;;;;;5.00;1.73;;;4.00;99.90;;;;;;4955624;29;20050;-74
2023/11/29 12:32:13;;;;;;;5.35;1.63;;;4.00;99.90;;;;;;4955183;29;20075;-74
2023/11/29 12:34:41;;;;;;;2.20;1.42;;;3.90;99.90;;;;;;4956019;28;20109;-74
2023/11/29 12:37:12;;;;;;;2.13;1.50;;;3.90;99.90;;;;;;4991824;28;20514;-75
2023/11/29 12:39:38;;;;;;;3.03;1.92;;;3.90;99.90;;;;;;4969443;28;20031;-74
2023/11/29 12:42:05;;;;;;;2.15;1.42;;;3.80;99.90;;;;;;4993807;28;20042;-74
2023/11/29 12:44:34;;;;;;;3.85;1.60;;;3.80;99.90;;;;;;4993550;28;20078;-74
2023/11/29 12:47:00;;;;;;;4.50;1.58;;;3.70;99.90;;;;;;4993437;28;20125;-74
2023/11/29 12:49:27;;;;;;;3.63;1.52;;;3.70;99.90;;;;;;4993575;28;20038;-74
2023/11/29 12:51:52;;;;;;;4.88;1.25;;;3.70;99.90;;;;;;4993718;28;20410;-74
2023/11/29 12:54:18;;;;;;;4.25;1.55;;;3.80;99.90;;;;;;4993590;28;20053;-74
2023/11/29 12:56:44;;;;;;;4.65;1.35;;;3.80;99.90;;;;;;4991829;28;20049;-74